Terminal Aerodrome Forecast
Issued by NWS Northern Indiana

Home | Current Version | Previous Version | Text Only | Print | Product List | Glossary On
Versions: 1 2 3 4 5 6 7 8 9 10 11 12 13 14
392
FTUS43 KIWX 300525
TAFFWA
TAF
KFWA 300525Z 3006/3106 22004KT P6SM BKN090
     FM301300 25010KT P6SM FEW045
     FM301700 26014G22KT P6SM BKN050
     FM310000 26008KT P6SM SCT150=

USA.gov is the U.S. government's official web portal to all federal, state and local government web resources and services.